sensor_id;sensor_type;location;lat;lon;timestamp;P1;durP1;ratioP1;P2;durP2;ratioP2
9459;SDS011;4768;42.664;23.240;2022-12-07T00:01:20;50.73;;;28.97;;
9459;SDS011;4768;42.664;23.240;2022-12-07T00:03:49;55.03;;;29.43;;
9459;SDS011;4768;42.664;23.240;2022-12-07T00:06:19;51.20;;;30.30;;
9459;SDS011;4768;42.664;23.240;2022-12-07T00:08:46;55.03;;;28.97;;
9459;SDS011;4768;42.664;23.240;2022-12-07T00:11:15;56.03;;;29.20;;
9459;SDS011;4768;42.664;23.240;2022-12-07T00:13:43;73.20;;;33.53;;
9459;SDS011;4768;42.664;23.240;2022-12-07T00:16:11;59.57;;;30.13;;
9459;SDS011;4768;42.664;23.240;2022-12-07T00:18:39;56.30;;;29.60;;
9459;SDS011;4768;42.664;23.240;2022-12-07T00:21:08;58.80;;;30.33;;
9459;SDS011;4768;42.664;23.240;2022-12-07T00:23:36;45.73;;;27.77;;
9459;SDS011;4768;42.664;23.240;2022-12-07T00:26:04;59.50;;;29.77;;
9459;SDS011;4768;42.664;23.240;2022-12-07T00:28:33;56.57;;;31.50;;
9459;SDS011;4768;42.664;23.240;2022-12-07T00:31:01;50.47;;;29.57;;
9459;SDS011;4768;42.664;23.240;2022-12-07T00:33:29;51.87;;;29.33;;
9459;SDS011;4768;42.664;23.240;2022-12-07T00:35:56;58.50;;;32.07;;
9459;SDS011;4768;42.664;23.240;2022-12-07T00:38:23;51.53;;;31.13;;
9459;SDS011;4768;42.664;23.240;2022-12-07T00:40:53;53.33;;;30.03;;
9459;SDS011;4768;42.664;23.240;2022-12-07T00:43:21;55.63;;;29.70;;
9459;SDS011;4768;42.664;23.240;2022-12-07T00:45:50;57.33;;;29.77;;
9459;SDS011;4768;42.664;23.240;2022-12-07T00:48:16;53.87;;;29.00;;
9459;SDS011;4768;42.664;23.240;2022-12-07T00:50:43;54.80;;;30.70;;
9459;SDS011;4768;42.664;23.240;2022-12-07T00:53:10;56.47;;;31.13;;
9459;SDS011;4768;42.664;23.240;2022-12-07T00:55:37;48.80;;;29.33;;
9459;SDS011;4768;42.664;23.240;2022-12-07T00:58:04;60.83;;;30.00;;
9459;SDS011;4768;42.664;23.240;2022-12-07T01:00:31;57.43;;;30.80;;
9459;SDS011;4768;42.664;23.240;2022-12-07T01:03:01;50.77;;;29.70;;
9459;SDS011;4768;42.664;23.240;2022-12-07T01:05:28;51.20;;;29.17;;
9459;SDS011;4768;42.664;23.240;2022-12-07T01:07:54;54.07;;;29.33;;
9459;SDS011;4768;42.664;23.240;2022-12-07T01:10:21;51.00;;;29.43;;
9459;SDS011;4768;42.664;23.240;2022-12-07T01:12:48;49.13;;;28.63;;
9459;SDS011;4768;42.664;23.240;2022-12-07T01:15:15;48.87;;;28.00;;
9459;SDS011;4768;42.664;23.240;2022-12-07T01:17:42;52.23;;;29.13;;
9459;SDS011;4768;42.664;23.240;2022-12-07T01:20:11;57.27;;;29.43;;
9459;SDS011;4768;42.664;23.240;2022-12-07T01:22:39;57.20;;;29.53;;
9459;SDS011;4768;42.664;23.240;2022-12-07T01:25:07;52.30;;;27.70;;
9459;SDS011;4768;42.664;23.240;2022-12-07T01:27:35;56.40;;;30.30;;
9459;SDS011;4768;42.664;23.240;2022-12-07T01:30:03;52.73;;;28.93;;
9459;SDS011;4768;42.664;23.240;2022-12-07T01:32:31;49.83;;;28.43;;
9459;SDS011;4768;42.664;23.240;2022-12-07T01:34:59;51.03;;;28.63;;
9459;SDS011;4768;42.664;23.240;2022-12-07T01:37:27;51.03;;;28.53;;
9459;SDS011;4768;42.664;23.240;2022-12-07T01:39:53;54.53;;;29.97;;
9459;SDS011;4768;42.664;23.240;2022-12-07T01:42:20;53.17;;;28.43;;
9459;SDS011;4768;42.664;23.240;2022-12-07T01:47:51;49.70;;;27.63;;
9459;SDS011;4768;42.664;23.240;2022-12-07T01:50:21;55.27;;;29.80;;
9459;SDS011;4768;42.664;23.240;2022-12-07T01:52:54;53.23;;;28.23;;
9459;SDS011;4768;42.664;23.240;2022-12-07T01:55:24;48.50;;;28.37;;
9459;SDS011;4768;42.664;23.240;2022-12-07T01:57:52;50.90;;;29.47;;
9459;SDS011;4768;42.664;23.240;2022-12-07T02:00:20;55.83;;;29.90;;
9459;SDS011;4768;42.664;23.240;2022-12-07T02:02:48;54.77;;;29.17;;
9459;SDS011;4768;42.664;23.240;2022-12-07T02:05:19;52.37;;;29.83;;
9459;SDS011;4768;42.664;23.240;2022-12-07T02:07:47;57.60;;;30.80;;
9459;SDS011;4768;42.664;23.240;2022-12-07T02:10:18;54.37;;;30.57;;
9459;SDS011;4768;42.664;23.240;2022-12-07T02:12:47;51.80;;;28.43;;
9459;SDS011;4768;42.664;23.240;2022-12-07T02:15:18;51.20;;;27.83;;
9459;SDS011;4768;42.664;23.240;2022-12-07T02:17:47;47.80;;;27.73;;
9459;SDS011;4768;42.664;23.240;2022-12-07T02:20:23;54.77;;;28.93;;
9459;SDS011;4768;42.664;23.240;2022-12-07T02:23:15;57.40;;;29.60;;
9459;SDS011;4768;42.664;23.240;2022-12-07T02:26:19;53.77;;;28.10;;
9459;SDS011;4768;42.664;23.240;2022-12-07T02:29:09;50.83;;;29.60;;
9459;SDS011;4768;42.664;23.240;2022-12-07T02:31:41;58.97;;;29.70;;
9459;SDS011;4768;42.664;23.240;2022-12-07T02:34:14;50.03;;;28.30;;
9459;SDS011;4768;42.664;23.240;2022-12-07T02:36:51;56.50;;;28.10;;
9459;SDS011;4768;42.664;23.240;2022-12-07T02:39:24;50.27;;;29.17;;
9459;SDS011;4768;42.664;23.240;2022-12-07T02:41:58;57.57;;;29.70;;
9459;SDS011;4768;42.664;23.240;2022-12-07T02:44:31;54.53;;;29.83;;
9459;SDS011;4768;42.664;23.240;2022-12-07T02:47:00;55.40;;;29.73;;
9459;SDS011;4768;42.664;23.240;2022-12-07T02:49:29;58.20;;;29.00;;
9459;SDS011;4768;42.664;23.240;2022-12-07T02:51:56;52.77;;;28.90;;
9459;SDS011;4768;42.664;23.240;2022-12-07T02:54:23;59.70;;;31.60;;
9459;SDS011;4768;42.664;23.240;2022-12-07T02:56:51;62.77;;;31.73;;
9459;SDS011;4768;42.664;23.240;2022-12-07T02:59:25;69.07;;;33.23;;
9459;SDS011;4768;42.664;23.240;2022-12-07T03:02:04;65.40;;;34.33;;
9459;SDS011;4768;42.664;23.240;2022-12-07T03:04:43;66.87;;;33.50;;
9459;SDS011;4768;42.664;23.240;2022-12-07T03:07:21;66.00;;;32.60;;
9459;SDS011;4768;42.664;23.240;2022-12-07T03:09:58;58.80;;;30.60;;
9459;SDS011;4768;42.664;23.240;2022-12-07T03:12:29;75.63;;;38.20;;
9459;SDS011;4768;42.664;23.240;2022-12-07T03:15:02;70.70;;;32.73;;
9459;SDS011;4768;42.664;23.240;2022-12-07T03:17:36;57.77;;;30.43;;
9459;SDS011;4768;42.664;23.240;2022-12-07T03:20:07;61.27;;;32.40;;
9459;SDS011;4768;42.664;23.240;2022-12-07T03:22:37;59.60;;;31.53;;
9459;SDS011;4768;42.664;23.240;2022-12-07T03:25:08;62.37;;;31.93;;
9459;SDS011;4768;42.664;23.240;2022-12-07T03:27:40;59.47;;;28.60;;
9459;SDS011;4768;42.664;23.240;2022-12-07T03:30:12;59.00;;;30.40;;
9459;SDS011;4768;42.664;23.240;2022-12-07T03:32:45;55.00;;;29.53;;
9459;SDS011;4768;42.664;23.240;2022-12-07T03:35:16;51.57;;;28.57;;
9459;SDS011;4768;42.664;23.240;2022-12-07T03:37:48;55.23;;;30.57;;
9459;SDS011;4768;42.664;23.240;2022-12-07T03:40:19;62.93;;;31.63;;
9459;SDS011;4768;42.664;23.240;2022-12-07T03:42:52;68.33;;;35.60;;
9459;SDS011;4768;42.664;23.240;2022-12-07T03:45:20;62.27;;;30.40;;
9459;SDS011;4768;42.664;23.240;2022-12-07T03:47:57;59.37;;;30.80;;
9459;SDS011;4768;42.664;23.240;2022-12-07T03:50:29;51.93;;;29.93;;
9459;SDS011;4768;42.664;23.240;2022-12-07T03:53:02;58.70;;;29.47;;
9459;SDS011;4768;42.664;23.240;2022-12-07T03:55:35;56.47;;;29.40;;
9459;SDS011;4768;42.664;23.240;2022-12-07T03:58:06;53.03;;;28.97;;
9459;SDS011;4768;42.664;23.240;2022-12-07T04:00:37;51.60;;;28.03;;
9459;SDS011;4768;42.664;23.240;2022-12-07T04:03:05;51.80;;;28.20;;
9459;SDS011;4768;42.664;23.240;2022-12-07T04:05:32;58.80;;;32.70;;
9459;SDS011;4768;42.664;23.240;2022-12-07T04:07:59;59.97;;;31.90;;
9459;SDS011;4768;42.664;23.240;2022-12-07T04:10:26;53.63;;;29.60;;
9459;SDS011;4768;42.664;23.240;2022-12-07T04:12:52;52.07;;;28.17;;
9459;SDS011;4768;42.664;23.240;2022-12-07T04:15:19;55.57;;;28.93;;
9459;SDS011;4768;42.664;23.240;2022-12-07T04:17:46;53.37;;;28.30;;
9459;SDS011;4768;42.664;23.240;2022-12-07T04:20:14;53.80;;;28.53;;
9459;SDS011;4768;42.664;23.240;2022-12-07T04:22:41;52.87;;;27.77;;
9459;SDS011;4768;42.664;23.240;2022-12-07T04:25:08;52.97;;;27.10;;
9459;SDS011;4768;42.664;23.240;2022-12-07T04:27:34;56.37;;;27.40;;
9459;SDS011;4768;42.664;23.240;2022-12-07T04:30:01;52.33;;;27.00;;
9459;SDS011;4768;42.664;23.240;2022-12-07T04:32:29;51.93;;;26.87;;
9459;SDS011;4768;42.664;23.240;2022-12-07T04:34:55;56.20;;;27.93;;
9459;SDS011;4768;42.664;23.240;2022-12-07T04:37:23;53.03;;;28.43;;
9459;SDS011;4768;42.664;23.240;2022-12-07T04:39:50;50.47;;;26.93;;
9459;SDS011;4768;42.664;23.240;2022-12-07T04:42:17;50.07;;;26.23;;
9459;SDS011;4768;42.664;23.240;2022-12-07T04:44:44;50.20;;;27.93;;
9459;SDS011;4768;42.664;23.240;2022-12-07T04:47:10;55.40;;;28.37;;
9459;SDS011;4768;42.664;23.240;2022-12-07T04:49:37;52.70;;;27.13;;
9459;SDS011;4768;42.664;23.240;2022-12-07T04:52:04;65.20;;;28.13;;
9459;SDS011;4768;42.664;23.240;2022-12-07T04:54:32;54.90;;;29.03;;
9459;SDS011;4768;42.664;23.240;2022-12-07T04:56:59;56.63;;;27.23;;
9459;SDS011;4768;42.664;23.240;2022-12-07T04:59:26;50.57;;;28.83;;
9459;SDS011;4768;42.664;23.240;2022-12-07T05:01:52;52.20;;;28.23;;
9459;SDS011;4768;42.664;23.240;2022-12-07T05:04:19;54.43;;;29.07;;
9459;SDS011;4768;42.664;23.240;2022-12-07T05:06:46;55.40;;;27.90;;
9459;SDS011;4768;42.664;23.240;2022-12-07T05:09:13;54.40;;;28.17;;
9459;SDS011;4768;42.664;23.240;2022-12-07T05:11:41;51.33;;;27.90;;
9459;SDS011;4768;42.664;23.240;2022-12-07T05:14:09;53.07;;;28.47;;
9459;SDS011;4768;42.664;23.240;2022-12-07T05:16:38;54.30;;;28.47;;
9459;SDS011;4768;42.664;23.240;2022-12-07T05:19:06;48.13;;;26.30;;
9459;SDS011;4768;42.664;23.240;2022-12-07T05:21:34;61.17;;;29.80;;
9459;SDS011;4768;42.664;23.240;2022-12-07T05:24:00;58.93;;;30.70;;
9459;SDS011;4768;42.664;23.240;2022-12-07T05:26:27;57.80;;;29.00;;
9459;SDS011;4768;42.664;23.240;2022-12-07T05:28:56;113.73;;;62.13;;
9459;SDS011;4768;42.664;23.240;2022-12-07T05:31:24;62.37;;;34.47;;
9459;SDS011;4768;42.664;23.240;2022-12-07T05:33:51;72.73;;;39.07;;
9459;SDS011;4768;42.664;23.240;2022-12-07T05:36:18;66.47;;;33.63;;
9459;SDS011;4768;42.664;23.240;2022-12-07T05:38:45;59.43;;;32.17;;
9459;SDS011;4768;42.664;23.240;2022-12-07T05:41:15;55.53;;;28.33;;
9459;SDS011;4768;42.664;23.240;2022-12-07T05:44:03;57.17;;;28.50;;
9459;SDS011;4768;42.664;23.240;2022-12-07T05:46:30;53.33;;;27.23;;
9459;SDS011;4768;42.664;23.240;2022-12-07T05:48:57;59.27;;;33.20;;
9459;SDS011;4768;42.664;23.240;2022-12-07T05:51:24;53.33;;;28.50;;
9459;SDS011;4768;42.664;23.240;2022-12-07T05:53:51;57.77;;;29.23;;
9459;SDS011;4768;42.664;23.240;2022-12-07T05:56:18;61.30;;;31.10;;
9459;SDS011;4768;42.664;23.240;2022-12-07T05:58:45;52.67;;;31.23;;
9459;SDS011;4768;42.664;23.240;2022-12-07T06:01:30;55.40;;;30.23;;
9459;SDS011;4768;42.664;23.240;2022-12-07T06:03:57;62.13;;;31.40;;
9459;SDS011;4768;42.664;23.240;2022-12-07T06:06:24;56.93;;;31.23;;
9459;SDS011;4768;42.664;23.240;2022-12-07T06:08:51;63.43;;;31.50;;
9459;SDS011;4768;42.664;23.240;2022-12-07T06:11:17;57.33;;;30.27;;
9459;SDS011;4768;42.664;23.240;2022-12-07T06:14:01;57.37;;;32.23;;
9459;SDS011;4768;42.664;23.240;2022-12-07T06:16:28;58.60;;;31.47;;
9459;SDS011;4768;42.664;23.240;2022-12-07T06:18:56;60.83;;;30.57;;
9459;SDS011;4768;42.664;23.240;2022-12-07T06:21:23;64.63;;;32.80;;
9459;SDS011;4768;42.664;23.240;2022-12-07T06:23:50;61.70;;;30.83;;
9459;SDS011;4768;42.664;23.240;2022-12-07T06:26:17;56.10;;;32.20;;
9459;SDS011;4768;42.664;23.240;2022-12-07T06:28:44;70.13;;;36.30;;
9459;SDS011;4768;42.664;23.240;2022-12-07T06:31:10;68.37;;;30.93;;
9459;SDS011;4768;42.664;23.240;2022-12-07T06:33:37;56.83;;;28.43;;
9459;SDS011;4768;42.664;23.240;2022-12-07T06:36:06;54.03;;;29.57;;
9459;SDS011;4768;42.664;23.240;2022-12-07T06:38:33;62.70;;;30.03;;
9459;SDS011;4768;42.664;23.240;2022-12-07T06:41:00;61.43;;;29.43;;
9459;SDS011;4768;42.664;23.240;2022-12-07T06:43:26;65.33;;;34.30;;
9459;SDS011;4768;42.664;23.240;2022-12-07T06:45:53;66.00;;;30.80;;
9459;SDS011;4768;42.664;23.240;2022-12-07T06:48:20;60.23;;;32.33;;
9459;SDS011;4768;42.664;23.240;2022-12-07T06:50:47;66.60;;;32.43;;
9459;SDS011;4768;42.664;23.240;2022-12-07T06:53:15;60.27;;;32.07;;
9459;SDS011;4768;42.664;23.240;2022-12-07T06:55:42;63.67;;;31.17;;
9459;SDS011;4768;42.664;23.240;2022-12-07T06:58:09;72.43;;;32.23;;
9459;SDS011;4768;42.664;23.240;2022-12-07T07:00:36;75.10;;;34.60;;
9459;SDS011;4768;42.664;23.240;2022-12-07T07:03:02;70.43;;;35.23;;
9459;SDS011;4768;42.664;23.240;2022-12-07T07:05:29;73.43;;;36.73;;
9459;SDS011;4768;42.664;23.240;2022-12-07T07:07:56;73.47;;;34.23;;
9459;SDS011;4768;42.664;23.240;2022-12-07T07:10:24;70.60;;;33.73;;
9459;SDS011;4768;42.664;23.240;2022-12-07T07:12:51;81.30;;;37.63;;
9459;SDS011;4768;42.664;23.240;2022-12-07T07:15:18;70.80;;;32.70;;
9459;SDS011;4768;42.664;23.240;2022-12-07T07:17:44;70.43;;;33.67;;
9459;SDS011;4768;42.664;23.240;2022-12-07T07:20:11;71.83;;;35.57;;
9459;SDS011;4768;42.664;23.240;2022-12-07T07:22:38;72.97;;;36.33;;
9459;SDS011;4768;42.664;23.240;2022-12-07T07:25:06;81.07;;;33.17;;
9459;SDS011;4768;42.664;23.240;2022-12-07T07:27:34;68.50;;;33.30;;
9459;SDS011;4768;42.664;23.240;2022-12-07T07:30:01;70.37;;;33.13;;
9459;SDS011;4768;42.664;23.240;2022-12-07T07:32:28;78.63;;;33.60;;
9459;SDS011;4768;42.664;23.240;2022-12-07T07:34:55;72.60;;;33.27;;
9459;SDS011;4768;42.664;23.240;2022-12-07T07:37:21;73.00;;;34.77;;
9459;SDS011;4768;42.664;23.240;2022-12-07T07:39:48;71.70;;;35.10;;
9459;SDS011;4768;42.664;23.240;2022-12-07T07:42:15;65.43;;;33.13;;
9459;SDS011;4768;42.664;23.240;2022-12-07T07:44:43;70.43;;;33.17;;
9459;SDS011;4768;42.664;23.240;2022-12-07T07:47:10;66.77;;;34.73;;
9459;SDS011;4768;42.664;23.240;2022-12-07T07:49:37;64.77;;;32.40;;
9459;SDS011;4768;42.664;23.240;2022-12-07T07:52:04;71.43;;;34.60;;
9459;SDS011;4768;42.664;23.240;2022-12-07T07:54:32;73.70;;;34.17;;
9459;SDS011;4768;42.664;23.240;2022-12-07T07:56:58;77.47;;;36.40;;
9459;SDS011;4768;42.664;23.240;2022-12-07T07:59:25;75.97;;;34.40;;
9459;SDS011;4768;42.664;23.240;2022-12-07T08:01:53;71.70;;;33.73;;
9459;SDS011;4768;42.664;23.240;2022-12-07T08:04:20;73.83;;;36.97;;
9459;SDS011;4768;42.664;23.240;2022-12-07T08:06:46;76.87;;;38.17;;
9459;SDS011;4768;42.664;23.240;2022-12-07T08:09:13;79.10;;;37.63;;
9459;SDS011;4768;42.664;23.240;2022-12-07T08:11:40;67.33;;;37.00;;
9459;SDS011;4768;42.664;23.240;2022-12-07T08:14:06;74.67;;;37.87;;
9459;SDS011;4768;42.664;23.240;2022-12-07T08:16:33;74.47;;;37.20;;
9459;SDS011;4768;42.664;23.240;2022-12-07T08:19:01;83.30;;;38.80;;
9459;SDS011;4768;42.664;23.240;2022-12-07T08:21:30;81.73;;;39.17;;
9459;SDS011;4768;42.664;23.240;2022-12-07T08:23:57;90.30;;;40.13;;
9459;SDS011;4768;42.664;23.240;2022-12-07T08:26:24;82.30;;;38.47;;
9459;SDS011;4768;42.664;23.240;2022-12-07T08:28:52;73.60;;;37.13;;
9459;SDS011;4768;42.664;23.240;2022-12-07T08:31:19;81.23;;;37.40;;
9459;SDS011;4768;42.664;23.240;2022-12-07T08:33:46;82.57;;;37.57;;
9459;SDS011;4768;42.664;23.240;2022-12-07T08:36:15;74.63;;;37.47;;
9459;SDS011;4768;42.664;23.240;2022-12-07T08:38:43;90.27;;;40.90;;
9459;SDS011;4768;42.664;23.240;2022-12-07T08:41:09;72.37;;;38.50;;
9459;SDS011;4768;42.664;23.240;2022-12-07T08:43:36;80.33;;;39.87;;
9459;SDS011;4768;42.664;23.240;2022-12-07T08:46:08;78.10;;;38.60;;
9459;SDS011;4768;42.664;23.240;2022-12-07T08:48:39;77.20;;;39.10;;
9459;SDS011;4768;42.664;23.240;2022-12-07T08:51:09;83.00;;;42.07;;
9459;SDS011;4768;42.664;23.240;2022-12-07T08:53:38;76.43;;;40.60;;
9459;SDS011;4768;42.664;23.240;2022-12-07T08:56:06;72.53;;;38.23;;
9459;SDS011;4768;42.664;23.240;2022-12-07T08:58:33;77.17;;;39.83;;
9459;SDS011;4768;42.664;23.240;2022-12-07T09:01:01;85.00;;;41.97;;
9459;SDS011;4768;42.664;23.240;2022-12-07T09:03:29;89.20;;;45.17;;
9459;SDS011;4768;42.664;23.240;2022-12-07T09:05:56;77.57;;;42.07;;
9459;SDS011;4768;42.664;23.240;2022-12-07T09:08:25;76.07;;;41.43;;
9459;SDS011;4768;42.664;23.240;2022-12-07T09:10:57;79.47;;;41.03;;
9459;SDS011;4768;42.664;23.240;2022-12-07T09:13:24;83.00;;;42.17;;
9459;SDS011;4768;42.664;23.240;2022-12-07T09:15:50;82.70;;;41.27;;
9459;SDS011;4768;42.664;23.240;2022-12-07T09:18:17;67.90;;;37.27;;
9459;SDS011;4768;42.664;23.240;2022-12-07T09:20:44;55.30;;;32.57;;
9459;SDS011;4768;42.664;23.240;2022-12-07T09:23:11;62.77;;;36.80;;
9459;SDS011;4768;42.664;23.240;2022-12-07T09:25:37;57.63;;;36.47;;
9459;SDS011;4768;42.664;23.240;2022-12-07T09:28:06;61.53;;;35.07;;
9459;SDS011;4768;42.664;23.240;2022-12-07T09:30:32;64.73;;;35.50;;
9459;SDS011;4768;42.664;23.240;2022-12-07T09:32:59;84.20;;;49.83;;
9459;SDS011;4768;42.664;23.240;2022-12-07T09:35:26;54.40;;;32.90;;
9459;SDS011;4768;42.664;23.240;2022-12-07T09:37:53;64.47;;;35.47;;
9459;SDS011;4768;42.664;23.240;2022-12-07T09:40:20;63.50;;;34.60;;
9459;SDS011;4768;42.664;23.240;2022-12-07T09:42:49;55.90;;;35.07;;
9459;SDS011;4768;42.664;23.240;2022-12-07T09:45:21;55.13;;;31.73;;
9459;SDS011;4768;42.664;23.240;2022-12-07T09:47:50;53.77;;;29.40;;
9459;SDS011;4768;42.664;23.240;2022-12-07T09:50:19;58.60;;;30.70;;
9459;SDS011;4768;42.664;23.240;2022-12-07T09:52:47;59.70;;;29.03;;
9459;SDS011;4768;42.664;23.240;2022-12-07T09:55:16;51.57;;;28.27;;
9459;SDS011;4768;42.664;23.240;2022-12-07T09:57:49;51.07;;;29.77;;
9459;SDS011;4768;42.664;23.240;2022-12-07T10:00:18;52.30;;;29.43;;
9459;SDS011;4768;42.664;23.240;2022-12-07T10:02:50;54.30;;;30.73;;
9459;SDS011;4768;42.664;23.240;2022-12-07T10:05:22;47.27;;;29.67;;
9459;SDS011;4768;42.664;23.240;2022-12-07T10:07:51;51.27;;;28.80;;
9459;SDS011;4768;42.664;23.240;2022-12-07T10:10:20;49.83;;;27.70;;
9459;SDS011;4768;42.664;23.240;2022-12-07T10:12:52;50.03;;;27.00;;
9459;SDS011;4768;42.664;23.240;2022-12-07T10:15:21;44.57;;;25.23;;
9459;SDS011;4768;42.664;23.240;2022-12-07T10:17:48;45.90;;;26.70;;
9459;SDS011;4768;42.664;23.240;2022-12-07T10:20:19;46.07;;;25.47;;
9459;SDS011;4768;42.664;23.240;2022-12-07T10:22:55;43.37;;;25.33;;
9459;SDS011;4768;42.664;23.240;2022-12-07T10:25:25;39.30;;;23.93;;
9459;SDS011;4768;42.664;23.240;2022-12-07T10:28:00;45.20;;;26.10;;
9459;SDS011;4768;42.664;23.240;2022-12-07T10:30:30;41.57;;;23.90;;
9459;SDS011;4768;42.664;23.240;2022-12-07T10:32:58;38.70;;;23.20;;
9459;SDS011;4768;42.664;23.240;2022-12-07T10:35:26;53.27;;;32.27;;
9459;SDS011;4768;42.664;23.240;2022-12-07T10:37:54;42.63;;;27.03;;
9459;SDS011;4768;42.664;23.240;2022-12-07T10:40:27;44.40;;;25.70;;
9459;SDS011;4768;42.664;23.240;2022-12-07T10:43:05;42.13;;;25.57;;
9459;SDS011;4768;42.664;23.240;2022-12-07T10:45:54;39.13;;;23.17;;
9459;SDS011;4768;42.664;23.240;2022-12-07T10:48:43;41.97;;;23.70;;
9459;SDS011;4768;42.664;23.240;2022-12-07T10:51:22;40.23;;;22.90;;
9459;SDS011;4768;42.664;23.240;2022-12-07T10:53:58;41.70;;;25.27;;
9459;SDS011;4768;42.664;23.240;2022-12-07T10:56:53;45.70;;;24.47;;
9459;SDS011;4768;42.664;23.240;2022-12-07T10:59:35;41.93;;;23.87;;
9459;SDS011;4768;42.664;23.240;2022-12-07T11:02:33;53.13;;;25.47;;
9459;SDS011;4768;42.664;23.240;2022-12-07T11:05:12;44.00;;;23.37;;
9459;SDS011;4768;42.664;23.240;2022-12-07T11:07:47;38.17;;;23.03;;
9459;SDS011;4768;42.664;23.240;2022-12-07T11:10:25;38.17;;;21.20;;
9459;SDS011;4768;42.664;23.240;2022-12-07T11:13:02;37.50;;;22.57;;
9459;SDS011;4768;42.664;23.240;2022-12-07T11:15:43;39.00;;;22.83;;
9459;SDS011;4768;42.664;23.240;2022-12-07T11:18:24;33.47;;;20.23;;
9459;SDS011;4768;42.664;23.240;2022-12-07T11:20:56;32.67;;;19.50;;
9459;SDS011;4768;42.664;23.240;2022-12-07T11:23:34;41.17;;;23.67;;
9459;SDS011;4768;42.664;23.240;2022-12-07T11:26:14;42.70;;;22.43;;
9459;SDS011;4768;42.664;23.240;2022-12-07T11:29:03;39.73;;;21.10;;
9459;SDS011;4768;42.664;23.240;2022-12-07T11:31:41;38.57;;;18.93;;
9459;SDS011;4768;42.664;23.240;2022-12-07T11:34:22;31.10;;;16.77;;
9459;SDS011;4768;42.664;23.240;2022-12-07T11:36:56;29.13;;;17.20;;
9459;SDS011;4768;42.664;23.240;2022-12-07T11:39:25;32.10;;;17.50;;
9459;SDS011;4768;42.664;23.240;2022-12-07T11:41:56;30.33;;;15.53;;
9459;SDS011;4768;42.664;23.240;2022-12-07T11:44:31;25.93;;;16.37;;
9459;SDS011;4768;42.664;23.240;2022-12-07T11:47:05;28.70;;;16.70;;
9459;SDS011;4768;42.664;23.240;2022-12-07T11:49:40;36.83;;;17.97;;
9459;SDS011;4768;42.664;23.240;2022-12-07T11:52:18;32.00;;;16.43;;
9459;SDS011;4768;42.664;23.240;2022-12-07T11:54:49;31.03;;;18.17;;
9459;SDS011;4768;42.664;23.240;2022-12-07T11:57:20;28.80;;;16.90;;
9459;SDS011;4768;42.664;23.240;2022-12-07T11:59:56;27.57;;;17.30;;
9459;SDS011;4768;42.664;23.240;2022-12-07T12:02:28;29.80;;;17.33;;
9459;SDS011;4768;42.664;23.240;2022-12-07T12:05:13;36.17;;;18.70;;
9459;SDS011;4768;42.664;23.240;2022-12-07T12:07:42;37.93;;;19.37;;
9459;SDS011;4768;42.664;23.240;2022-12-07T12:10:17;37.37;;;18.47;;
9459;SDS011;4768;42.664;23.240;2022-12-07T12:15:44;32.67;;;19.17;;
9459;SDS011;4768;42.664;23.240;2022-12-07T12:18:30;29.60;;;18.57;;
9459;SDS011;4768;42.664;23.240;2022-12-07T12:21:17;32.70;;;19.47;;
9459;SDS011;4768;42.664;23.240;2022-12-07T12:23:50;31.40;;;19.37;;
9459;SDS011;4768;42.664;23.240;2022-12-07T12:26:23;33.97;;;19.40;;
9459;SDS011;4768;42.664;23.240;2022-12-07T12:28:54;31.37;;;18.47;;
9459;SDS011;4768;42.664;23.240;2022-12-07T12:31:34;34.40;;;19.77;;
9459;SDS011;4768;42.664;23.240;2022-12-07T12:34:10;30.80;;;19.40;;
9459;SDS011;4768;42.664;23.240;2022-12-07T12:36:59;35.23;;;21.07;;
9459;SDS011;4768;42.664;23.240;2022-12-07T12:39:26;38.17;;;20.53;;
9459;SDS011;4768;42.664;23.240;2022-12-07T12:41:54;34.70;;;21.27;;
9459;SDS011;4768;42.664;23.240;2022-12-07T12:47:41;33.57;;;20.63;;
9459;SDS011;4768;42.664;23.240;2022-12-07T12:50:18;44.00;;;25.80;;
9459;SDS011;4768;42.664;23.240;2022-12-07T12:52:50;38.93;;;22.77;;
9459;SDS011;4768;42.664;23.240;2022-12-07T12:58:25;30.77;;;18.13;;
9459;SDS011;4768;42.664;23.240;2022-12-07T13:04:28;27.50;;;17.27;;
9459;SDS011;4768;42.664;23.240;2022-12-07T13:07:10;34.10;;;15.67;;
9459;SDS011;4768;42.664;23.240;2022-12-07T13:09:42;30.47;;;17.83;;
9459;SDS011;4768;42.664;23.240;2022-12-07T13:12:12;25.83;;;16.07;;
9459;SDS011;4768;42.664;23.240;2022-12-07T13:14:42;28.10;;;16.77;;
9459;SDS011;4768;42.664;23.240;2022-12-07T13:23:13;25.97;;;16.10;;
9459;SDS011;4768;42.664;23.240;2022-12-07T13:25:48;25.50;;;15.67;;
9459;SDS011;4768;42.664;23.240;2022-12-07T13:28:18;26.17;;;12.63;;
9459;SDS011;4768;42.664;23.240;2022-12-07T13:30:50;23.17;;;12.27;;
9459;SDS011;4768;42.664;23.240;2022-12-07T13:33:27;32.23;;;15.27;;
9459;SDS011;4768;42.664;23.240;2022-12-07T13:35:55;24.97;;;14.70;;
9459;SDS011;4768;42.664;23.240;2022-12-07T13:38:26;29.53;;;16.23;;
9459;SDS011;4768;42.664;23.240;2022-12-07T13:41:11;34.40;;;19.27;;
9459;SDS011;4768;42.664;23.240;2022-12-07T13:43:48;31.47;;;19.63;;
9459;SDS011;4768;42.664;23.240;2022-12-07T13:46:20;30.13;;;18.00;;
9459;SDS011;4768;42.664;23.240;2022-12-07T13:48:53;30.03;;;17.73;;
9459;SDS011;4768;42.664;23.240;2022-12-07T13:51:21;30.87;;;17.80;;
9459;SDS011;4768;42.664;23.240;2022-12-07T13:53:50;32.03;;;15.97;;
9459;SDS011;4768;42.664;23.240;2022-12-07T13:56:22;29.83;;;17.27;;
9459;SDS011;4768;42.664;23.240;2022-12-07T13:58:54;28.40;;;16.87;;
9459;SDS011;4768;42.664;23.240;2022-12-07T14:01:21;31.47;;;18.40;;
9459;SDS011;4768;42.664;23.240;2022-12-07T14:03:48;30.47;;;18.27;;
9459;SDS011;4768;42.664;23.240;2022-12-07T14:06:20;38.00;;;21.83;;
9459;SDS011;4768;42.664;23.240;2022-12-07T14:09:05;42.57;;;24.23;;
9459;SDS011;4768;42.664;23.240;2022-12-07T14:11:44;37.80;;;18.73;;
9459;SDS011;4768;42.664;23.240;2022-12-07T14:14:13;33.53;;;16.50;;
9459;SDS011;4768;42.664;23.240;2022-12-07T14:16:42;29.13;;;16.97;;
9459;SDS011;4768;42.664;23.240;2022-12-07T14:22:08;36.17;;;19.63;;
9459;SDS011;4768;42.664;23.240;2022-12-07T14:24:44;33.63;;;17.87;;
9459;SDS011;4768;42.664;23.240;2022-12-07T14:27:17;36.47;;;19.07;;
9459;SDS011;4768;42.664;23.240;2022-12-07T14:29:45;31.77;;;18.57;;
9459;SDS011;4768;42.664;23.240;2022-12-07T14:32:18;40.97;;;18.07;;
9459;SDS011;4768;42.664;23.240;2022-12-07T14:34:54;36.93;;;22.77;;
9459;SDS011;4768;42.664;23.240;2022-12-07T14:37:23;34.90;;;18.47;;
9459;SDS011;4768;42.664;23.240;2022-12-07T14:39:50;34.03;;;17.93;;
9459;SDS011;4768;42.664;23.240;2022-12-07T14:42:18;30.67;;;18.47;;
9459;SDS011;4768;42.664;23.240;2022-12-07T14:44:46;38.13;;;18.93;;
9459;SDS011;4768;42.664;23.240;2022-12-07T14:47:13;34.83;;;18.40;;
9459;SDS011;4768;42.664;23.240;2022-12-07T14:49:39;51.63;;;26.67;;
9459;SDS011;4768;42.664;23.240;2022-12-07T14:52:08;43.93;;;22.50;;
9459;SDS011;4768;42.664;23.240;2022-12-07T14:54:41;37.47;;;19.90;;
9459;SDS011;4768;42.664;23.240;2022-12-07T14:57:09;37.50;;;19.70;;
9459;SDS011;4768;42.664;23.240;2022-12-07T14:59:37;32.70;;;18.00;;
9459;SDS011;4768;42.664;23.240;2022-12-07T15:02:04;35.40;;;18.43;;
9459;SDS011;4768;42.664;23.240;2022-12-07T15:04:32;38.87;;;17.27;;
9459;SDS011;4768;42.664;23.240;2022-12-07T15:07:00;30.83;;;15.43;;
9459;SDS011;4768;42.664;23.240;2022-12-07T15:09:29;30.17;;;14.83;;
9459;SDS011;4768;42.664;23.240;2022-12-07T15:11:56;34.60;;;19.30;;
9459;SDS011;4768;42.664;23.240;2022-12-07T15:14:22;29.40;;;16.43;;
9459;SDS011;4768;42.664;23.240;2022-12-07T15:16:51;36.00;;;18.17;;